Slocum, Rhode Island
Current Conditions -  °F | °C
As of 12:53 AM on Thursday 29 Jan 2015 (Local Time) from KUUU Reporting Station
Clear Clear  
Wind Chill: 10°   Ceiling: Unl
Heat Index: 18°   Visibility: 10mi
Dew Point:   Wind: 6mph
Humidity: 52%   Direction: 360°N
Pressure: 30.23"   Gusts: NA
Location:  41.53°N, 71.52°W
Report Text: KUUU 290553Z AUTO 36005KT 10SM CLR M08/M16 A3023 RMK AO2 SLP237 T10781161 11050 21078 51018
Loading
Personal Weather Stations






























Interactive Weather Map New forecast layout! Learn more

10-Day Weather Forecast

Advertisements
Track Severe Weather on mobile